sensor_id;sensor_type;location;lat;lon;timestamp;P1;durP1;ratioP1;P2;durP2;ratioP2
53062;SDS011;40529;52.172;10.548;2022-10-16T08:35:49;3.08;;;1.25;;
53062;SDS011;40529;52.172;10.548;2022-10-16T08:38:15;5.00;;;0.88;;
53062;SDS011;40529;52.172;10.548;2022-10-16T08:40:41;1.88;;;1.00;;
53062;SDS011;40529;52.172;10.548;2022-10-16T08:48:09;3.33;;;0.98;;
53062;SDS011;40529;52.172;10.548;2022-10-16T08:50:39;1.33;;;1.00;;
53062;SDS011;40529;52.172;10.548;2022-10-16T08:53:06;3.08;;;1.00;;
53062;SDS011;40529;52.172;10.548;2022-10-16T08:58:28;2.58;;;1.00;;
53062;SDS011;40529;52.172;10.548;2022-10-16T09:00:59;1.45;;;0.90;;
53062;SDS011;40529;52.172;10.548;2022-10-16T09:16:18;1.70;;;0.93;;
53062;SDS011;40529;52.172;10.548;2022-10-16T09:23:38;1.98;;;0.90;;
53062;SDS011;40529;52.172;10.548;2022-10-16T09:26:05;2.13;;;0.75;;
53062;SDS011;40529;52.172;10.548;2022-10-16T09:28:31;1.88;;;0.70;;
53062;SDS011;40529;52.172;10.548;2022-10-16T09:30:57;2.22;;;0.70;;
53062;SDS011;40529;52.172;10.548;2022-10-16T09:33:25;1.98;;;0.68;;
53062;SDS011;40529;52.172;10.548;2022-10-16T09:35:52;1.65;;;0.73;;
53062;SDS011;40529;52.172;10.548;2022-10-16T09:40:51;1.38;;;0.82;;
53062;SDS011;40529;52.172;10.548;2022-10-16T09:46:27;0.80;;;0.70;;
53062;SDS011;40529;52.172;10.548;2022-10-16T09:48:54;3.10;;;0.60;;
53062;SDS011;40529;52.172;10.548;2022-10-16T09:51:22;1.38;;;0.65;;
53062;SDS011;40529;52.172;10.548;2022-10-16T09:53:49;1.90;;;0.77;;
53062;SDS011;40529;52.172;10.548;2022-10-16T09:56:27;1.88;;;0.80;;
53062;SDS011;40529;52.172;10.548;2022-10-16T09:58:54;1.08;;;0.80;;
53062;SDS011;40529;52.172;10.548;2022-10-16T10:01:20;1.10;;;0.70;;
53062;SDS011;40529;52.172;10.548;2022-10-16T10:03:47;1.67;;;0.65;;
53062;SDS011;40529;52.172;10.548;2022-10-16T10:06:21;0.93;;;0.77;;
53062;SDS011;40529;52.172;10.548;2022-10-16T10:08:58;0.70;;;0.70;;
53062;SDS011;40529;52.172;10.548;2022-10-16T10:11:42;2.88;;;0.70;;
53062;SDS011;40529;52.172;10.548;2022-10-16T10:14:43;3.35;;;0.70;;
53062;SDS011;40529;52.172;10.548;2022-10-16T10:19:36;0.70;;;0.50;;
53062;SDS011;40529;52.172;10.548;2022-10-16T10:22:13;3.35;;;0.60;;
53062;SDS011;40529;52.172;10.548;2022-10-16T10:24:39;1.10;;;0.50;;
53062;SDS011;40529;52.172;10.548;2022-10-16T10:27:10;1.27;;;0.57;;
53062;SDS011;40529;52.172;10.548;2022-10-16T10:37:02;1.90;;;0.60;;
53062;SDS011;40529;52.172;10.548;2022-10-16T10:39:40;5.45;;;0.47;;
53062;SDS011;40529;52.172;10.548;2022-10-16T10:50:06;0.50;;;0.40;;
53062;SDS011;40529;52.172;10.548;2022-10-16T11:00:49;1.00;;;0.47;;
53062;SDS011;40529;52.172;10.548;2022-10-16T11:05:49;7.22;;;1.95;;
53062;SDS011;40529;52.172;10.548;2022-10-16T11:08:17;2.42;;;0.47;;
53062;SDS011;40529;52.172;10.548;2022-10-16T11:15:40;3.03;;;0.47;;
53062;SDS011;40529;52.172;10.548;2022-10-16T11:18:16;0.80;;;0.40;;
53062;SDS011;40529;52.172;10.548;2022-10-16T11:20:49;3.80;;;0.43;;
53062;SDS011;40529;52.172;10.548;2022-10-16T11:25:46;0.98;;;0.38;;
53062;SDS011;40529;52.172;10.548;2022-10-16T11:28:14;2.15;;;0.70;;
53062;SDS011;40529;52.172;10.548;2022-10-16T11:30:47;2.08;;;0.38;;
53062;SDS011;40529;52.172;10.548;2022-10-16T11:35:48;1.13;;;0.30;;
53062;SDS011;40529;52.172;10.548;2022-10-16T11:40:52;1.92;;;0.93;;
53062;SDS011;40529;52.172;10.548;2022-10-16T11:43:26;2.60;;;0.60;;
53062;SDS011;40529;52.172;10.548;2022-10-16T11:45:55;1.52;;;0.30;;
53062;SDS011;40529;52.172;10.548;2022-10-16T11:49:24;1.98;;;0.40;;
53062;SDS011;40529;52.172;10.548;2022-10-16T11:51:36;1.02;;;0.30;;
53062;SDS011;40529;52.172;10.548;2022-10-16T11:54:20;1.83;;;0.50;;
53062;SDS011;40529;52.172;10.548;2022-10-16T11:56:47;2.13;;;0.35;;
53062;SDS011;40529;52.172;10.548;2022-10-16T12:01:44;2.53;;;0.60;;
53062;SDS011;40529;52.172;10.548;2022-10-16T12:06:42;2.17;;;0.30;;
53062;SDS011;40529;52.172;10.548;2022-10-16T12:09:14;1.33;;;0.40;;
53062;SDS011;40529;52.172;10.548;2022-10-16T12:11:41;1.85;;;0.40;;
53062;SDS011;40529;52.172;10.548;2022-10-16T12:16:33;0.70;;;0.60;;
53062;SDS011;40529;52.172;10.548;2022-10-16T12:19:07;0.65;;;0.55;;
53062;SDS011;40529;52.172;10.548;2022-10-16T12:21:35;1.50;;;0.52;;
53062;SDS011;40529;52.172;10.548;2022-10-16T12:24:02;1.77;;;0.80;;
53062;SDS011;40529;52.172;10.548;2022-10-16T12:26:31;0.50;;;0.40;;
53062;SDS011;40529;52.172;10.548;2022-10-16T12:29:10;0.70;;;0.50;;
53062;SDS011;40529;52.172;10.548;2022-10-16T12:34:03;1.23;;;0.70;;
53062;SDS011;40529;52.172;10.548;2022-10-16T12:36:32;2.60;;;0.65;;
53062;SDS011;40529;52.172;10.548;2022-10-16T12:39:00;1.33;;;0.50;;
53062;SDS011;40529;52.172;10.548;2022-10-16T12:41:31;2.22;;;0.60;;
53062;SDS011;40529;52.172;10.548;2022-10-16T12:43:57;0.85;;;0.50;;
53062;SDS011;40529;52.172;10.548;2022-10-16T12:46:33;2.20;;;0.50;;
53062;SDS011;40529;52.172;10.548;2022-10-16T12:51:39;3.17;;;0.60;;
53062;SDS011;40529;52.172;10.548;2022-10-16T13:04:40;2.72;;;0.50;;
53062;SDS011;40529;52.172;10.548;2022-10-16T13:07:18;4.35;;;0.60;;
53062;SDS011;40529;52.172;10.548;2022-10-16T13:10:34;2.08;;;0.50;;
53062;SDS011;40529;52.172;10.548;2022-10-16T13:12:50;1.58;;;0.40;;
53062;SDS011;40529;52.172;10.548;2022-10-16T13:20:46;2.10;;;0.30;;
53062;SDS011;40529;52.172;10.548;2022-10-16T13:23:20;1.40;;;0.40;;
53062;SDS011;40529;52.172;10.548;2022-10-16T13:28:35;1.95;;;0.55;;
53062;SDS011;40529;52.172;10.548;2022-10-16T13:31:03;1.83;;;0.47;;
53062;SDS011;40529;52.172;10.548;2022-10-16T13:33:33;2.15;;;0.50;;
53062;SDS011;40529;52.172;10.548;2022-10-16T13:36:01;1.58;;;0.88;;
53062;SDS011;40529;52.172;10.548;2022-10-16T13:38:31;1.63;;;0.45;;
53062;SDS011;40529;52.172;10.548;2022-10-16T13:41:01;3.05;;;0.30;;
53062;SDS011;40529;52.172;10.548;2022-10-16T13:45:54;1.95;;;0.40;;
53062;SDS011;40529;52.172;10.548;2022-10-16T13:48:21;2.10;;;0.50;;
53062;SDS011;40529;52.172;10.548;2022-10-16T13:50:57;2.13;;;0.57;;
53062;SDS011;40529;52.172;10.548;2022-10-16T13:53:23;0.85;;;0.35;;
53062;SDS011;40529;52.172;10.548;2022-10-16T13:55:49;3.10;;;0.30;;
53062;SDS011;40529;52.172;10.548;2022-10-16T13:58:15;1.30;;;0.40;;
53062;SDS011;40529;52.172;10.548;2022-10-16T14:01:03;1.10;;;0.28;;
53062;SDS011;40529;52.172;10.548;2022-10-16T14:03:28;1.35;;;0.38;;
53062;SDS011;40529;52.172;10.548;2022-10-16T14:05:59;2.90;;;0.50;;
53062;SDS011;40529;52.172;10.548;2022-10-16T14:08:26;1.20;;;0.40;;
53062;SDS011;40529;52.172;10.548;2022-10-16T14:10:54;1.98;;;0.45;;
53062;SDS011;40529;52.172;10.548;2022-10-16T14:13:28;1.00;;;0.20;;
53062;SDS011;40529;52.172;10.548;2022-10-16T14:15:55;1.17;;;0.30;;
53062;SDS011;40529;52.172;10.548;2022-10-16T14:18:24;0.70;;;0.40;;
53062;SDS011;40529;52.172;10.548;2022-10-16T14:20:51;1.10;;;0.40;;
53062;SDS011;40529;52.172;10.548;2022-10-16T14:23:30;2.08;;;0.40;;
53062;SDS011;40529;52.172;10.548;2022-10-16T14:28:34;1.02;;;0.30;;
53062;SDS011;40529;52.172;10.548;2022-10-16T14:31:01;1.98;;;0.40;;
53062;SDS011;40529;52.172;10.548;2022-10-16T14:36:02;0.55;;;0.40;;
53062;SDS011;40529;52.172;10.548;2022-10-16T14:38:29;2.90;;;0.50;;
53062;SDS011;40529;52.172;10.548;2022-10-16T14:40:55;2.53;;;0.50;;
53062;SDS011;40529;52.172;10.548;2022-10-16T14:43:26;1.13;;;0.35;;
53062;SDS011;40529;52.172;10.548;2022-10-16T14:45:55;1.63;;;0.40;;
53062;SDS011;40529;52.172;10.548;2022-10-16T14:48:22;1.08;;;0.30;;
53062;SDS011;40529;52.172;10.548;2022-10-16T14:50:48;0.47;;;0.20;;
53062;SDS011;40529;52.172;10.548;2022-10-16T14:53:15;2.35;;;0.50;;
53062;SDS011;40529;52.172;10.548;2022-10-16T14:55:41;0.68;;;0.47;;
53062;SDS011;40529;52.172;10.548;2022-10-16T14:58:20;1.02;;;0.50;;
53062;SDS011;40529;52.172;10.548;2022-10-16T15:00:47;1.67;;;0.50;;
53062;SDS011;40529;52.172;10.548;2022-10-16T15:03:14;0.88;;;0.40;;
53062;SDS011;40529;52.172;10.548;2022-10-16T15:05:40;1.80;;;0.30;;
53062;SDS011;40529;52.172;10.548;2022-10-16T15:08:06;2.03;;;0.50;;
53062;SDS011;40529;52.172;10.548;2022-10-16T15:10:33;1.75;;;0.40;;
53062;SDS011;40529;52.172;10.548;2022-10-16T15:13:01;2.93;;;0.40;;
53062;SDS011;40529;52.172;10.548;2022-10-16T15:18:03;1.75;;;0.80;;
53062;SDS011;40529;52.172;10.548;2022-10-16T15:20:30;2.03;;;0.40;;
53062;SDS011;40529;52.172;10.548;2022-10-16T15:22:58;0.85;;;0.50;;
53062;SDS011;40529;52.172;10.548;2022-10-16T15:25:32;1.52;;;0.60;;
53062;SDS011;40529;52.172;10.548;2022-10-16T15:27:59;1.50;;;0.65;;
53062;SDS011;40529;52.172;10.548;2022-10-16T15:30:26;1.77;;;0.70;;
53062;SDS011;40529;52.172;10.548;2022-10-16T15:32:52;1.02;;;0.75;;
53062;SDS011;40529;52.172;10.548;2022-10-16T15:35:18;0.60;;;0.60;;
53062;SDS011;40529;52.172;10.548;2022-10-16T15:37:45;1.23;;;0.50;;
53062;SDS011;40529;52.172;10.548;2022-10-16T15:40:12;1.05;;;0.50;;
53062;SDS011;40529;52.172;10.548;2022-10-16T15:42:38;1.30;;;0.45;;
53062;SDS011;40529;52.172;10.548;2022-10-16T15:45:04;1.52;;;0.68;;
53062;SDS011;40529;52.172;10.548;2022-10-16T15:47:31;0.88;;;0.50;;
53062;SDS011;40529;52.172;10.548;2022-10-16T15:49:57;1.63;;;0.60;;
53062;SDS011;40529;52.172;10.548;2022-10-16T15:52:23;0.95;;;0.80;;
53062;SDS011;40529;52.172;10.548;2022-10-16T15:54:49;1.20;;;0.70;;
53062;SDS011;40529;52.172;10.548;2022-10-16T15:57:15;0.63;;;0.50;;
53062;SDS011;40529;52.172;10.548;2022-10-16T15:59:41;2.22;;;1.58;;
53062;SDS011;40529;52.172;10.548;2022-10-16T16:02:08;2.10;;;0.70;;
53062;SDS011;40529;52.172;10.548;2022-10-16T16:04:34;1.73;;;0.70;;
53062;SDS011;40529;52.172;10.548;2022-10-16T16:07:00;2.33;;;0.70;;
53062;SDS011;40529;52.172;10.548;2022-10-16T16:09:28;2.83;;;0.95;;
53062;SDS011;40529;52.172;10.548;2022-10-16T16:11:54;2.83;;;0.95;;
53062;SDS011;40529;52.172;10.548;2022-10-16T16:14:20;2.45;;;0.82;;
53062;SDS011;40529;52.172;10.548;2022-10-16T16:16:46;2.78;;;1.00;;
53062;SDS011;40529;52.172;10.548;2022-10-16T16:19:12;2.55;;;0.80;;
53062;SDS011;40529;52.172;10.548;2022-10-16T16:21:41;1.65;;;0.85;;
53062;SDS011;40529;52.172;10.548;2022-10-16T16:24:07;1.13;;;0.68;;
53062;SDS011;40529;52.172;10.548;2022-10-16T16:26:33;1.98;;;1.48;;
53062;SDS011;40529;52.172;10.548;2022-10-16T16:29:02;0.90;;;0.80;;
53062;SDS011;40529;52.172;10.548;2022-10-16T16:31:29;1.73;;;0.90;;
53062;SDS011;40529;52.172;10.548;2022-10-16T16:33:55;1.15;;;0.80;;
53062;SDS011;40529;52.172;10.548;2022-10-16T16:36:22;1.60;;;1.20;;
53062;SDS011;40529;52.172;10.548;2022-10-16T16:38:48;2.03;;;1.23;;
53062;SDS011;40529;52.172;10.548;2022-10-16T16:41:15;1.88;;;1.30;;
53062;SDS011;40529;52.172;10.548;2022-10-16T16:43:42;1.58;;;1.40;;
53062;SDS011;40529;52.172;10.548;2022-10-16T16:46:08;1.58;;;1.30;;
53062;SDS011;40529;52.172;10.548;2022-10-16T16:48:34;3.15;;;1.60;;
53062;SDS011;40529;52.172;10.548;2022-10-16T16:51:04;2.58;;;1.70;;
53062;SDS011;40529;52.172;10.548;2022-10-16T16:53:30;3.55;;;2.60;;
53062;SDS011;40529;52.172;10.548;2022-10-16T16:56:00;6.82;;;2.97;;
53062;SDS011;40529;52.172;10.548;2022-10-16T16:58:26;4.75;;;3.40;;
53062;SDS011;40529;52.172;10.548;2022-10-16T17:00:52;5.45;;;3.17;;
53062;SDS011;40529;52.172;10.548;2022-10-16T17:03:18;4.38;;;3.17;;
53062;SDS011;40529;52.172;10.548;2022-10-16T17:05:54;6.00;;;3.22;;
53062;SDS011;40529;52.172;10.548;2022-10-16T17:08:20;4.05;;;2.75;;
53062;SDS011;40529;52.172;10.548;2022-10-16T17:10:46;4.15;;;2.70;;
53062;SDS011;40529;52.172;10.548;2022-10-16T17:13:17;3.35;;;2.78;;
53062;SDS011;40529;52.172;10.548;2022-10-16T17:15:46;3.85;;;2.65;;
53062;SDS011;40529;52.172;10.548;2022-10-16T17:18:13;2.95;;;2.25;;
53062;SDS011;40529;52.172;10.548;2022-10-16T17:20:39;3.50;;;2.60;;
53062;SDS011;40529;52.172;10.548;2022-10-16T17:23:05;4.35;;;2.97;;
53062;SDS011;40529;52.172;10.548;2022-10-16T17:25:34;5.35;;;2.92;;
53062;SDS011;40529;52.172;10.548;2022-10-16T17:28:01;3.13;;;2.70;;
53062;SDS011;40529;52.172;10.548;2022-10-16T17:30:27;5.85;;;3.55;;
53062;SDS011;40529;52.172;10.548;2022-10-16T17:32:53;5.95;;;4.00;;
53062;SDS011;40529;52.172;10.548;2022-10-16T17:35:19;7.38;;;3.90;;
53062;SDS011;40529;52.172;10.548;2022-10-16T17:37:45;7.55;;;4.18;;
53062;SDS011;40529;52.172;10.548;2022-10-16T17:40:11;7.82;;;4.32;;
53062;SDS011;40529;52.172;10.548;2022-10-16T17:42:37;6.90;;;5.10;;
53062;SDS011;40529;52.172;10.548;2022-10-16T17:45:03;9.18;;;5.10;;
53062;SDS011;40529;52.172;10.548;2022-10-16T17:47:29;6.97;;;5.13;;
53062;SDS011;40529;52.172;10.548;2022-10-16T17:49:55;7.70;;;5.05;;
53062;SDS011;40529;52.172;10.548;2022-10-16T17:52:22;5.88;;;3.88;;
53062;SDS011;40529;52.172;10.548;2022-10-16T17:54:49;4.60;;;3.47;;
53062;SDS011;40529;52.172;10.548;2022-10-16T17:57:16;5.90;;;3.10;;
53062;SDS011;40529;52.172;10.548;2022-10-16T17:59:42;3.50;;;2.75;;
53062;SDS011;40529;52.172;10.548;2022-10-16T18:02:09;6.03;;;2.65;;
53062;SDS011;40529;52.172;10.548;2022-10-16T18:04:35;5.28;;;2.97;;
53062;SDS011;40529;52.172;10.548;2022-10-16T18:07:01;4.97;;;2.95;;
53062;SDS011;40529;52.172;10.548;2022-10-16T18:09:28;5.93;;;3.22;;
53062;SDS011;40529;52.172;10.548;2022-10-16T18:11:54;4.32;;;2.80;;
53062;SDS011;40529;52.172;10.548;2022-10-16T18:14:27;4.35;;;2.90;;
53062;SDS011;40529;52.172;10.548;2022-10-16T18:16:53;4.07;;;3.30;;
53062;SDS011;40529;52.172;10.548;2022-10-16T18:19:19;4.30;;;2.72;;
53062;SDS011;40529;52.172;10.548;2022-10-16T18:21:46;5.82;;;2.88;;
53062;SDS011;40529;52.172;10.548;2022-10-16T18:24:13;3.65;;;2.80;;
53062;SDS011;40529;52.172;10.548;2022-10-16T18:26:39;4.65;;;2.80;;
53062;SDS011;40529;52.172;10.548;2022-10-16T18:29:06;4.35;;;2.75;;
53062;SDS011;40529;52.172;10.548;2022-10-16T18:31:32;4.65;;;2.97;;
53062;SDS011;40529;52.172;10.548;2022-10-16T18:33:58;4.45;;;2.78;;
53062;SDS011;40529;52.172;10.548;2022-10-16T18:36:25;4.88;;;3.10;;
53062;SDS011;40529;52.172;10.548;2022-10-16T18:38:53;4.55;;;3.00;;
53062;SDS011;40529;52.172;10.548;2022-10-16T18:41:19;5.38;;;3.05;;
53062;SDS011;40529;52.172;10.548;2022-10-16T18:43:46;4.35;;;3.05;;
53062;SDS011;40529;52.172;10.548;2022-10-16T18:46:13;4.10;;;3.08;;
53062;SDS011;40529;52.172;10.548;2022-10-16T18:48:40;4.75;;;3.40;;
53062;SDS011;40529;52.172;10.548;2022-10-16T18:53:36;3.70;;;2.60;;
53062;SDS011;40529;52.172;10.548;2022-10-16T18:56:02;6.00;;;3.22;;
53062;SDS011;40529;52.172;10.548;2022-10-16T18:58:28;4.63;;;3.33;;
53062;SDS011;40529;52.172;10.548;2022-10-16T19:00:54;4.60;;;2.83;;
53062;SDS011;40529;52.172;10.548;2022-10-16T19:03:21;4.10;;;2.88;;
53062;SDS011;40529;52.172;10.548;2022-10-16T19:05:47;4.10;;;2.70;;
53062;SDS011;40529;52.172;10.548;2022-10-16T19:08:13;5.70;;;2.72;;
53062;SDS011;40529;52.172;10.548;2022-10-16T19:10:39;3.22;;;1.63;;
53062;SDS011;40529;52.172;10.548;2022-10-16T19:13:06;4.00;;;1.50;;
53062;SDS011;40529;52.172;10.548;2022-10-16T19:15:33;2.58;;;1.50;;
53062;SDS011;40529;52.172;10.548;2022-10-16T19:17:59;3.70;;;1.77;;
53062;SDS011;40529;52.172;10.548;2022-10-16T19:20:25;3.53;;;1.90;;
53062;SDS011;40529;52.172;10.548;2022-10-16T19:22:51;4.45;;;2.38;;
53062;SDS011;40529;52.172;10.548;2022-10-16T19:25:22;4.55;;;1.83;;
53062;SDS011;40529;52.172;10.548;2022-10-16T19:27:49;3.88;;;1.88;;
53062;SDS011;40529;52.172;10.548;2022-10-16T19:30:16;4.32;;;2.42;;
53062;SDS011;40529;52.172;10.548;2022-10-16T19:32:42;5.10;;;2.97;;
53062;SDS011;40529;52.172;10.548;2022-10-16T19:35:10;6.55;;;3.40;;
53062;SDS011;40529;52.172;10.548;2022-10-16T19:37:36;6.78;;;4.35;;
53062;SDS011;40529;52.172;10.548;2022-10-16T19:40:02;8.85;;;5.00;;
53062;SDS011;40529;52.172;10.548;2022-10-16T19:42:28;11.90;;;6.07;;
53062;SDS011;40529;52.172;10.548;2022-10-16T19:44:54;7.75;;;5.25;;
53062;SDS011;40529;52.172;10.548;2022-10-16T19:47:20;5.35;;;3.50;;
53062;SDS011;40529;52.172;10.548;2022-10-16T19:49:48;5.72;;;4.15;;
53062;SDS011;40529;52.172;10.548;2022-10-16T19:52:14;5.75;;;4.35;;
53062;SDS011;40529;52.172;10.548;2022-10-16T19:54:41;5.13;;;3.40;;
53062;SDS011;40529;52.172;10.548;2022-10-16T19:57:07;4.28;;;2.70;;
53062;SDS011;40529;52.172;10.548;2022-10-16T19:59:33;3.95;;;2.88;;
53062;SDS011;40529;52.172;10.548;2022-10-16T20:01:59;5.60;;;3.10;;
53062;SDS011;40529;52.172;10.548;2022-10-16T20:04:25;4.55;;;2.92;;
53062;SDS011;40529;52.172;10.548;2022-10-16T20:06:51;5.75;;;3.13;;
53062;SDS011;40529;52.172;10.548;2022-10-16T20:09:17;3.20;;;2.50;;
53062;SDS011;40529;52.172;10.548;2022-10-16T20:11:44;3.55;;;2.58;;
53062;SDS011;40529;52.172;10.548;2022-10-16T20:14:10;3.55;;;2.20;;
53062;SDS011;40529;52.172;10.548;2022-10-16T20:16:36;4.15;;;2.30;;
53062;SDS011;40529;52.172;10.548;2022-10-16T20:19:03;3.05;;;2.55;;
53062;SDS011;40529;52.172;10.548;2022-10-16T20:21:30;3.20;;;2.55;;
53062;SDS011;40529;52.172;10.548;2022-10-16T20:23:58;5.97;;;2.83;;
53062;SDS011;40529;52.172;10.548;2022-10-16T20:26:24;4.10;;;2.47;;
53062;SDS011;40529;52.172;10.548;2022-10-16T20:28:51;3.38;;;2.47;;
53062;SDS011;40529;52.172;10.548;2022-10-16T20:31:19;3.30;;;2.60;;
53062;SDS011;40529;52.172;10.548;2022-10-16T20:33:47;4.45;;;2.20;;
53062;SDS011;40529;52.172;10.548;2022-10-16T20:36:13;3.10;;;2.40;;
53062;SDS011;40529;52.172;10.548;2022-10-16T20:38:41;6.10;;;2.30;;
53062;SDS011;40529;52.172;10.548;2022-10-16T20:41:07;3.80;;;2.47;;
53062;SDS011;40529;52.172;10.548;2022-10-16T20:43:34;4.30;;;2.75;;
53062;SDS011;40529;52.172;10.548;2022-10-16T20:46:01;3.00;;;2.30;;
53062;SDS011;40529;52.172;10.548;2022-10-16T20:48:27;5.40;;;2.30;;
53062;SDS011;40529;52.172;10.548;2022-10-16T20:50:53;2.97;;;2.30;;
53062;SDS011;40529;52.172;10.548;2022-10-16T20:53:19;2.58;;;1.90;;
53062;SDS011;40529;52.172;10.548;2022-10-16T20:55:45;2.80;;;1.80;;
53062;SDS011;40529;52.172;10.548;2022-10-16T20:58:11;4.43;;;2.55;;
53062;SDS011;40529;52.172;10.548;2022-10-16T21:00:38;10.80;;;2.10;;
53062;SDS011;40529;52.172;10.548;2022-10-16T21:03:04;3.88;;;2.40;;
53062;SDS011;40529;52.172;10.548;2022-10-16T21:05:30;3.70;;;2.13;;
53062;SDS011;40529;52.172;10.548;2022-10-16T21:07:58;3.28;;;2.00;;
53062;SDS011;40529;52.172;10.548;2022-10-16T21:10:24;4.47;;;2.00;;
53062;SDS011;40529;52.172;10.548;2022-10-16T21:12:53;2.50;;;1.77;;
53062;SDS011;40529;52.172;10.548;2022-10-16T21:15:20;3.45;;;2.00;;
53062;SDS011;40529;52.172;10.548;2022-10-16T21:17:46;4.57;;;2.30;;
53062;SDS011;40529;52.172;10.548;2022-10-16T21:20:12;4.93;;;2.17;;
53062;SDS011;40529;52.172;10.548;2022-10-16T21:22:38;3.33;;;2.10;;
53062;SDS011;40529;52.172;10.548;2022-10-16T21:25:04;5.85;;;2.30;;
53062;SDS011;40529;52.172;10.548;2022-10-16T21:27:37;5.25;;;2.20;;
53062;SDS011;40529;52.172;10.548;2022-10-16T21:30:04;2.33;;;2.00;;
53062;SDS011;40529;52.172;10.548;2022-10-16T21:32:30;4.82;;;2.20;;
53062;SDS011;40529;52.172;10.548;2022-10-16T21:34:56;2.33;;;1.70;;
53062;SDS011;40529;52.172;10.548;2022-10-16T21:37:22;4.50;;;2.00;;
53062;SDS011;40529;52.172;10.548;2022-10-16T21:39:48;3.70;;;1.80;;
53062;SDS011;40529;52.172;10.548;2022-10-16T21:42:15;3.03;;;1.92;;
53062;SDS011;40529;52.172;10.548;2022-10-16T21:44:41;2.38;;;1.83;;
53062;SDS011;40529;52.172;10.548;2022-10-16T21:47:07;2.65;;;1.92;;
53062;SDS011;40529;52.172;10.548;2022-10-16T21:49:33;7.13;;;2.10;;
53062;SDS011;40529;52.172;10.548;2022-10-16T21:51:59;2.17;;;1.75;;
53062;SDS011;40529;52.172;10.548;2022-10-16T21:54:25;5.38;;;2.45;;
53062;SDS011;40529;52.172;10.548;2022-10-16T21:56:51;4.47;;;2.30;;
53062;SDS011;40529;52.172;10.548;2022-10-16T21:59:17;3.10;;;2.47;;
53062;SDS011;40529;52.172;10.548;2022-10-16T22:01:43;4.07;;;2.60;;
53062;SDS011;40529;52.172;10.548;2022-10-16T22:04:10;4.55;;;2.50;;
53062;SDS011;40529;52.172;10.548;2022-10-16T22:06:36;4.03;;;2.42;;
53062;SDS011;40529;52.172;10.548;2022-10-16T22:09:02;3.10;;;2.55;;
53062;SDS011;40529;52.172;10.548;2022-10-16T22:11:29;4.47;;;2.60;;
53062;SDS011;40529;52.172;10.548;2022-10-16T22:14:00;4.32;;;2.90;;
53062;SDS011;40529;52.172;10.548;2022-10-16T22:16:26;2.90;;;2.60;;
53062;SDS011;40529;52.172;10.548;2022-10-16T22:18:53;4.30;;;2.70;;
53062;SDS011;40529;52.172;10.548;2022-10-16T22:21:19;4.53;;;2.90;;
53062;SDS011;40529;52.172;10.548;2022-10-16T22:23:46;4.25;;;2.38;;
53062;SDS011;40529;52.172;10.548;2022-10-16T22:26:12;3.25;;;2.60;;
53062;SDS011;40529;52.172;10.548;2022-10-16T22:28:38;2.97;;;2.60;;
53062;SDS011;40529;52.172;10.548;2022-10-16T22:31:06;4.55;;;2.55;;
53062;SDS011;40529;52.172;10.548;2022-10-16T22:33:32;3.53;;;2.30;;
53062;SDS011;40529;52.172;10.548;2022-10-16T22:35:59;3.08;;;2.20;;
53062;SDS011;40529;52.172;10.548;2022-10-16T22:38:25;2.58;;;2.13;;
53062;SDS011;40529;52.172;10.548;2022-10-16T22:40:51;2.85;;;2.00;;
53062;SDS011;40529;52.172;10.548;2022-10-16T22:43:17;2.88;;;2.13;;
53062;SDS011;40529;52.172;10.548;2022-10-16T22:45:43;6.03;;;2.60;;
53062;SDS011;40529;52.172;10.548;2022-10-16T22:48:09;4.75;;;2.80;;
53062;SDS011;40529;52.172;10.548;2022-10-16T22:50:35;5.15;;;2.90;;
53062;SDS011;40529;52.172;10.548;2022-10-16T22:53:01;3.67;;;2.60;;
53062;SDS011;40529;52.172;10.548;2022-10-16T22:55:27;3.20;;;2.85;;
53062;SDS011;40529;52.172;10.548;2022-10-16T22:57:56;4.50;;;2.65;;
53062;SDS011;40529;52.172;10.548;2022-10-16T23:00:22;3.00;;;2.50;;
53062;SDS011;40529;52.172;10.548;2022-10-16T23:02:49;3.53;;;2.85;;
53062;SDS011;40529;52.172;10.548;2022-10-16T23:05:15;6.20;;;2.78;;
53062;SDS011;40529;52.172;10.548;2022-10-16T23:07:41;4.28;;;2.70;;
53062;SDS011;40529;52.172;10.548;2022-10-16T23:10:08;4.13;;;2.80;;
53062;SDS011;40529;52.172;10.548;2022-10-16T23:12:35;4.28;;;2.60;;
53062;SDS011;40529;52.172;10.548;2022-10-16T23:15:01;4.78;;;2.92;;
53062;SDS011;40529;52.172;10.548;2022-10-16T23:17:27;5.55;;;2.72;;
53062;SDS011;40529;52.172;10.548;2022-10-16T23:19:53;3.05;;;2.67;;
53062;SDS011;40529;52.172;10.548;2022-10-16T23:22:19;6.22;;;2.50;;
53062;SDS011;40529;52.172;10.548;2022-10-16T23:24:45;2.92;;;2.63;;
53062;SDS011;40529;52.172;10.548;2022-10-16T23:27:11;3.17;;;2.70;;
53062;SDS011;40529;52.172;10.548;2022-10-16T23:29:37;4.10;;;2.85;;
53062;SDS011;40529;52.172;10.548;2022-10-16T23:32:03;4.05;;;2.80;;
53062;SDS011;40529;52.172;10.548;2022-10-16T23:34:29;3.70;;;2.92;;
53062;SDS011;40529;52.172;10.548;2022-10-16T23:36:56;3.55;;;3.08;;
53062;SDS011;40529;52.172;10.548;2022-10-16T23:39:22;4.43;;;3.00;;
53062;SDS011;40529;52.172;10.548;2022-10-16T23:41:48;3.97;;;2.88;;
53062;SDS011;40529;52.172;10.548;2022-10-16T23:44:14;5.03;;;3.70;;
53062;SDS011;40529;52.172;10.548;2022-10-16T23:46:40;3.65;;;3.15;;
53062;SDS011;40529;52.172;10.548;2022-10-16T23:49:06;8.45;;;4.38;;
53062;SDS011;40529;52.172;10.548;2022-10-16T23:51:32;4.63;;;3.40;;
53062;SDS011;40529;52.172;10.548;2022-10-16T23:53:58;5.53;;;4.32;;
53062;SDS011;40529;52.172;10.548;2022-10-16T23:56:24;6.43;;;3.25;;
53062;SDS011;40529;52.172;10.548;2022-10-16T23:58:50;4.45;;;3.45;;
